Time;durP1;ratioP1;P1;durP2;ratioP2;P2;SDS_P1;SDS_P2;PMS_P1;PMS_P2;Temp;Humidity;BMP_temperature;BMP_pressure;BME280_temperature;BME280_humidity;BME280_pressure;Samples;Min_cycle;Max_cycle;Signal;HPM_P1;HPM_P2
2023/02/12 00:01:37;;;;;;;29.58;15.20;;;1.00;99.90;;;;;;4852271;29;20073;-83
2023/02/12 00:04:04;;;;;;;30.27;14.80;;;1.00;99.90;;;;;;4848527;29;20058;-83
2023/02/12 00:06:31;;;;;;;26.83;14.77;;;1.00;99.90;;;;;;4865525;29;20431;-82
2023/02/12 00:08:58;;;;;;;27.10;14.68;;;1.00;99.90;;;;;;4864555;29;20092;-83
2023/02/12 00:11:28;;;;;;;27.42;14.00;;;1.00;99.90;;;;;;4858106;29;20492;-83
2023/02/12 00:13:56;;;;;;;26.63;14.02;;;1.00;99.90;;;;;;4860741;29;20113;-82
2023/02/12 00:16:27;;;;;;;25.08;14.38;;;1.00;99.90;;;;;;4860152;29;20574;-83
2023/02/12 00:18:55;;;;;;;27.00;15.48;;;1.00;99.90;;;;;;4853513;29;20106;-82
2023/02/12 00:21:22;;;;;;;28.42;14.63;;;0.90;99.90;;;;;;4851082;29;20086;-83
2023/02/12 00:23:49;;;;;;;27.15;13.63;;;0.90;99.90;;;;;;4861569;29;20114;-83
2023/02/12 00:26:19;;;;;;;25.60;13.18;;;0.90;99.90;;;;;;4856928;29;20492;-82
2023/02/12 00:28:46;;;;;;;22.50;13.55;;;0.90;99.90;;;;;;4850283;29;20145;-83
2023/02/12 00:31:17;;;;;;;26.20;13.32;;;0.90;99.90;;;;;;4869450;29;20041;-82
2023/02/12 00:33:44;;;;;;;23.35;12.07;;;0.90;99.90;;;;;;4861501;29;20548;-83
2023/02/12 00:36:17;;;;;;;26.27;15.50;;;0.90;99.90;;;;;;4860561;29;20132;-83
2023/02/12 00:38:45;;;;;;;32.00;16.08;;;0.90;99.90;;;;;;4856176;29;20100;-82
2023/02/12 00:41:12;;;;;;;27.17;14.63;;;0.90;99.90;;;;;;4863130;29;20141;-83
2023/02/12 00:43:39;;;;;;;24.88;13.05;;;0.90;99.90;;;;;;4855326;29;20050;-82
2023/02/12 00:46:06;;;;;;;24.73;13.30;;;0.90;99.90;;;;;;4859043;29;20152;-83
2023/02/12 00:48:35;;;;;;;28.83;13.68;;;0.90;99.90;;;;;;4852397;29;20064;-83
2023/02/12 00:51:02;;;;;;;26.00;13.65;;;0.90;99.90;;;;;;4861653;29;20137;-82
2023/02/12 00:53:29;;;;;;;25.48;12.82;;;0.90;99.90;;;;;;4850637;29;20103;-83
2023/02/12 00:55:55;;;;;;;22.52;12.88;;;0.90;99.90;;;;;;4865488;29;20080;-83
2023/02/12 00:58:23;;;;;;;23.17;12.85;;;0.90;99.90;;;;;;4871924;29;20127;-83
2023/02/12 01:00:49;;;;;;;34.83;15.07;;;0.90;99.90;;;;;;4855387;29;20478;-83
2023/02/12 01:03:16;;;;;;;24.75;13.60;;;0.90;99.90;;;;;;4852064;29;20063;-82
2023/02/12 01:05:43;;;;;;;30.20;13.43;;;0.90;99.90;;;;;;4837397;29;20118;-83
2023/02/12 01:08:14;;;;;;;25.95;13.68;;;0.90;99.90;;;;;;4857641;29;20145;-82
2023/02/12 01:10:42;;;;;;;25.40;12.98;;;0.90;99.90;;;;;;4852123;29;20054;-83
2023/02/12 01:13:12;;;;;;;25.25;13.00;;;0.90;99.90;;;;;;4845220;29;20136;-83
2023/02/12 01:15:40;;;;;;;24.55;13.70;;;0.80;99.90;;;;;;4862573;29;20089;-82
2023/02/12 01:18:07;;;;;;;24.65;14.05;;;0.80;99.90;;;;;;4861162;29;20425;-82
2023/02/12 01:20:34;;;;;;;26.02;13.82;;;0.80;99.90;;;;;;4845248;29;20057;-82
2023/02/12 01:23:00;;;;;;;24.88;13.52;;;0.80;99.90;;;;;;4854962;29;20164;-82
2023/02/12 01:25:27;;;;;;;26.65;13.75;;;0.80;99.90;;;;;;4850249;29;20049;-82
2023/02/12 01:27:54;;;;;;;24.48;13.50;;;0.80;99.90;;;;;;4852679;29;20061;-82
2023/02/12 01:30:23;;;;;;;26.55;13.88;;;0.80;99.90;;;;;;4853841;29;20111;-82
2023/02/12 01:32:49;;;;;;;24.27;13.15;;;0.80;99.90;;;;;;4843590;29;20128;-83
2023/02/12 01:35:16;;;;;;;23.13;12.35;;;0.80;99.90;;;;;;4857459;29;20050;-83
2023/02/12 01:37:43;;;;;;;22.88;13.95;;;0.80;99.90;;;;;;4857244;29;20052;-82
2023/02/12 01:40:14;;;;;;;25.45;12.57;;;0.80;99.90;;;;;;4859935;29;20144;-82
2023/02/12 01:42:41;;;;;;;22.50;12.98;;;0.80;99.90;;;;;;4853588;29;20049;-83
2023/02/12 01:45:11;;;;;;;26.90;12.63;;;0.80;99.90;;;;;;4874552;29;20109;-83
2023/02/12 01:47:39;;;;;;;26.67;12.65;;;0.80;99.90;;;;;;4881182;29;20037;-83
2023/02/12 01:50:09;;;;;;;20.05;11.73;;;0.80;99.90;;;;;;4869871;29;20044;-82
2023/02/12 01:52:38;;;;;;;23.92;13.32;;;0.80;99.90;;;;;;4885618;29;20047;-82
2023/02/12 01:55:07;;;;;;;23.23;13.07;;;0.80;99.90;;;;;;4858097;29;20080;-82
2023/02/12 01:57:38;;;;;;;24.40;12.18;;;0.80;99.90;;;;;;4851469;29;20136;-82
2023/02/12 02:00:13;;;;;;;24.02;12.32;;;0.70;99.90;;;;;;4852779;29;20053;-82
2023/02/12 02:02:43;;;;;;;25.23;11.38;;;0.70;99.90;;;;;;4857605;29;20092;-83
2023/02/12 02:05:13;;;;;;;21.30;12.38;;;0.70;99.90;;;;;;4845980;29;20293;-82
2023/02/12 02:07:42;;;;;;;20.15;11.07;;;0.70;99.90;;;;;;4845746;29;20141;-83
2023/02/12 02:10:09;;;;;;;21.87;12.00;;;0.70;99.90;;;;;;4856803;29;20050;-83
2023/02/12 02:15:25;;;;;;;21.15;12.80;;;0.70;99.90;;;;;;4852497;29;20148;-82
2023/02/12 02:18:01;;;;;;;23.63;12.85;;;0.60;99.90;;;;;;4857680;29;20140;-83
2023/02/12 02:20:33;;;;;;;21.30;12.98;;;0.60;99.90;;;;;;4852990;29;20116;-82
2023/02/12 02:23:19;;;;;;;24.30;12.23;;;0.60;99.90;;;;;;4854003;29;20089;-82
2023/02/12 02:26:43;;;;;;;25.00;13.80;;;0.60;99.90;;;;;;4844881;29;20493;-83
2023/02/12 02:29:31;;;;;;;27.17;12.70;;;0.60;99.90;;;;;;4819204;29;20510;-82
2023/02/12 02:32:07;;;;;;;24.08;13.90;;;0.60;99.90;;;;;;4815480;29;20119;-83
2023/02/12 02:34:33;;;;;;;25.42;13.20;;;0.50;99.90;;;;;;4831058;29;20081;-83
2023/02/12 02:37:16;;;;;;;23.00;11.90;;;0.50;99.90;;;;;;4859089;29;20046;-82
2023/02/12 02:40:24;;;;;;;24.20;12.98;;;0.50;99.90;;;;;;4847479;29;20580;-82
2023/02/12 02:43:03;;;;;;;26.13;13.30;;;0.50;99.90;;;;;;4841638;29;20085;-82
2023/02/12 02:45:38;;;;;;;25.25;13.50;;;0.50;99.90;;;;;;4855536;29;20060;-82
2023/02/12 02:48:20;;;;;;;21.52;12.63;;;0.50;99.90;;;;;;4859098;29;20057;-83
2023/02/12 02:50:53;;;;;;;21.92;13.05;;;0.50;99.90;;;;;;4858099;29;20123;-82
2023/02/12 02:53:28;;;;;;;24.05;14.32;;;0.50;99.90;;;;;;4856753;29;20407;-82
2023/02/12 02:55:59;;;;;;;26.25;13.50;;;0.40;99.90;;;;;;4854319;29;20050;-83
2023/02/12 02:58:50;;;;;;;24.58;14.48;;;0.40;99.90;;;;;;4851009;29;20148;-83
2023/02/12 03:01:29;;;;;;;28.13;13.40;;;0.40;99.90;;;;;;4857228;29;20485;-83
2023/02/12 03:04:05;;;;;;;23.55;13.70;;;0.40;99.90;;;;;;4856413;29;20145;-83
2023/02/12 03:06:43;;;;;;;26.95;14.18;;;0.40;99.90;;;;;;4842235;29;20440;-82
2023/02/12 03:09:20;;;;;;;22.70;12.98;;;0.40;99.90;;;;;;4856250;29;20090;-83
2023/02/12 03:11:49;;;;;;;26.52;14.25;;;0.40;99.90;;;;;;4857320;29;20512;-83
2023/02/12 03:14:19;;;;;;;24.98;13.48;;;0.40;99.90;;;;;;4859461;29;20053;-83
2023/02/12 03:16:56;;;;;;;26.00;13.50;;;0.40;99.90;;;;;;4839176;29;20520;-82
2023/02/12 03:19:28;;;;;;;25.27;13.82;;;0.40;99.90;;;;;;4854982;29;20056;-82
2023/02/12 03:22:07;;;;;;;21.70;13.45;;;0.40;99.90;;;;;;4845500;29;20054;-83
2023/02/12 03:24:45;;;;;;;25.42;14.27;;;0.30;99.90;;;;;;4840166;29;20054;-83
2023/02/12 03:27:30;;;;;;;27.85;13.90;;;0.40;99.90;;;;;;4859836;29;20065;-83
2023/02/12 03:29:58;;;;;;;23.80;12.90;;;0.30;99.90;;;;;;4855870;29;20149;-82
2023/02/12 03:32:43;;;;;;;27.13;13.88;;;0.30;99.90;;;;;;4841739;29;20050;-83
2023/02/12 03:35:34;;;;;;;24.20;13.43;;;0.30;99.90;;;;;;4862813;29;20069;-82
2023/02/12 03:38:21;;;;;;;25.45;13.45;;;0.30;99.90;;;;;;4842986;29;20049;-83
2023/02/12 03:41:05;;;;;;;23.58;13.05;;;0.30;99.90;;;;;;4858622;29;20088;-81
2023/02/12 03:43:56;;;;;;;26.27;13.30;;;0.20;99.90;;;;;;4859814;29;20088;-82
2023/02/12 03:46:39;;;;;;;26.52;14.90;;;0.20;99.90;;;;;;4849774;29;20053;-83
2023/02/12 03:49:18;;;;;;;27.42;15.68;;;0.20;99.90;;;;;;4854548;29;20123;-82
2023/02/12 03:51:45;;;;;;;31.58;15.27;;;0.20;99.90;;;;;;4849249;29;20527;-82
2023/02/12 03:54:17;;;;;;;29.00;15.68;;;0.20;99.90;;;;;;4850812;29;20058;-83
2023/02/12 03:57:05;;;;;;;24.08;13.85;;;0.20;99.90;;;;;;4861504;29;20128;-82
2023/02/12 03:59:35;;;;;;;24.45;13.82;;;0.20;99.90;;;;;;4859074;29;20088;-83
2023/02/12 04:02:02;;;;;;;26.25;14.90;;;0.20;99.90;;;;;;4862483;29;20057;-82
2023/02/12 04:04:29;;;;;;;26.58;14.80;;;0.20;99.90;;;;;;4850627;29;20057;-82
2023/02/12 04:06:56;;;;;;;29.65;15.52;;;0.10;99.90;;;;;;4848517;29;20067;-83
2023/02/12 04:09:26;;;;;;;28.92;15.88;;;0.20;99.90;;;;;;4859473;29;20117;-82
2023/02/12 04:12:12;;;;;;;;;;;0.10;99.90;;;;;;4849062;29;20588;-83
2023/02/12 04:14:43;;;;;;;27.77;14.40;;;0.10;99.90;;;;;;4853312;29;20025;-82
2023/02/12 04:17:31;;;;;;;30.60;15.63;;;0.10;99.90;;;;;;4848248;29;20106;-83
2023/02/12 04:20:31;;;;;;;30.95;17.08;;;0.10;99.90;;;;;;4851010;29;20054;-83
2023/02/12 04:23:15;;;;;;;;;;;0.10;99.90;;;;;;4859240;29;20050;-83
2023/02/12 04:26:01;;;;;;;26.42;14.77;;;0.10;99.90;;;;;;4858047;29;19928;-82
2023/02/12 04:28:57;;;;;;;28.13;16.63;;;0.10;99.90;;;;;;4859765;29;20053;-82
2023/02/12 04:31:59;;;;;;;29.02;16.10;;;0.10;99.90;;;;;;4853038;29;20080;-83
2023/02/12 04:34:41;;;;;;;32.72;16.25;;;0.10;99.90;;;;;;4783601;29;20100;-82
2023/02/12 04:37:16;;;;;;;33.45;17.10;;;0.10;99.90;;;;;;4857235;29;20501;-82
2023/02/12 04:39:44;;;;;;;31.15;17.27;;;0.10;99.90;;;;;;4857407;29;20151;-83
2023/02/12 04:42:11;;;;;;;29.23;16.70;;;0.10;99.90;;;;;;4858991;29;20057;-82
2023/02/12 04:44:41;;;;;;;29.23;15.15;;;0.10;99.90;;;;;;4863483;29;20064;-82
2023/02/12 04:47:11;;;;;;;34.03;17.65;;;0.10;99.90;;;;;;4861679;29;20054;-82
2023/02/12 04:49:38;;;;;;;;;;;0.00;99.90;;;;;;4861909;29;20092;-82
2023/02/12 04:52:04;;;;;;;32.55;16.95;;;0.00;99.90;;;;;;4852408;29;19925;-82
2023/02/12 04:54:31;;;;;;;32.05;16.60;;;0.10;99.90;;;;;;4858630;29;20132;-82
2023/02/12 04:56:58;;;;;;;28.80;15.50;;;0.00;99.90;;;;;;4857349;29;20096;-83
2023/02/12 04:59:25;;;;;;;32.22;16.50;;;0.00;99.90;;;;;;4862200;29;20050;-83
2023/02/12 05:01:52;;;;;;;32.47;16.58;;;0.00;99.90;;;;;;4846738;29;20062;-83
2023/02/12 05:04:19;;;;;;;38.67;18.17;;;0.00;99.90;;;;;;4861871;29;20586;-82
2023/02/12 05:06:45;;;;;;;33.35;16.95;;;0.00;99.90;;;;;;4860479;29;20057;-83
2023/02/12 05:09:16;;;;;;;30.05;16.10;;;0.00;99.90;;;;;;4860610;29;20058;-83
2023/02/12 05:11:43;;;;;;;31.40;16.65;;;0.00;99.90;;;;;;4860771;29;20068;-83
2023/02/12 05:14:10;;;;;;;32.30;16.98;;;0.00;99.90;;;;;;4859444;29;20124;-82
2023/02/12 05:16:37;;;;;;;29.70;16.90;;;0.00;99.90;;;;;;4855475;29;20054;-82
2023/02/12 05:19:04;;;;;;;31.23;16.77;;;0.00;99.90;;;;;;4853372;29;20049;-82
2023/02/12 05:21:30;;;;;;;25.33;14.65;;;0.00;99.90;;;;;;4858703;29;20084;-82
2023/02/12 05:23:57;;;;;;;26.70;15.18;;;0.00;99.90;;;;;;4858860;29;20068;-82
2023/02/12 05:26:24;;;;;;;31.45;16.52;;;0.00;99.90;;;;;;4856566;29;20109;-83
2023/02/12 05:28:50;;;;;;;29.08;15.70;;;0.00;99.90;;;;;;4864132;29;20554;-81
2023/02/12 05:31:19;;;;;;;32.03;17.02;;;-0.10;99.90;;;;;;4864004;29;20045;-82
2023/02/12 05:33:48;;;;;;;32.00;15.75;;;-0.10;99.90;;;;;;4858356;29;20137;-83
2023/02/12 05:36:18;;;;;;;28.73;15.68;;;-0.10;99.90;;;;;;4858542;29;20456;-82
2023/02/12 05:38:45;;;;;;;31.33;16.63;;;-0.10;99.90;;;;;;4861011;29;20050;-83
2023/02/12 05:41:17;;;;;;;31.02;16.98;;;-0.10;99.90;;;;;;4862301;29;20106;-83
2023/02/12 05:43:44;;;;;;;29.85;15.43;;;-0.10;99.90;;;;;;4849877;29;20129;-83
2023/02/12 05:46:16;;;;;;;27.35;15.68;;;-0.10;99.90;;;;;;4838587;29;20049;-82
2023/02/12 05:48:43;;;;;;;27.00;15.95;;;-0.10;99.90;;;;;;4854453;29;20061;-82
2023/02/12 05:51:12;;;;;;;29.30;15.38;;;-0.10;99.90;;;;;;4856789;29;20092;-82
2023/02/12 05:53:40;;;;;;;32.17;17.55;;;-0.10;99.90;;;;;;4857958;29;20470;-83
2023/02/12 05:56:13;;;;;;;31.95;17.10;;;-0.10;99.90;;;;;;4850687;29;20561;-82
2023/02/12 05:58:42;;;;;;;29.00;15.32;;;-0.10;99.90;;;;;;4852479;29;20077;-83
2023/02/12 06:01:15;;;;;;;30.33;16.50;;;-0.10;99.90;;;;;;4853142;29;20100;-82
2023/02/12 06:03:42;;;;;;;27.40;15.88;;;-0.10;99.90;;;;;;4853320;29;20140;-82
2023/02/12 06:06:10;;;;;;;33.47;16.30;;;-0.20;99.90;;;;;;4858435;29;20077;-82
2023/02/12 06:08:37;;;;;;;30.20;15.50;;;-0.20;99.90;;;;;;4849472;29;20137;-83
2023/02/12 06:11:07;;;;;;;32.08;16.45;;;-0.20;99.90;;;;;;4852338;29;20082;-83
2023/02/12 06:13:34;;;;;;;28.20;15.75;;;-0.20;99.90;;;;;;4851933;29;20081;-83
2023/02/12 06:16:01;;;;;;;28.67;15.20;;;-0.20;99.90;;;;;;4858185;29;20081;-82
2023/02/12 06:18:28;;;;;;;35.92;17.98;;;-0.20;99.90;;;;;;4848165;29;20077;-82
2023/02/12 06:20:55;;;;;;;33.65;17.58;;;-0.20;99.90;;;;;;4869115;29;20077;-82
2023/02/12 06:23:23;;;;;;;30.60;16.75;;;-0.20;99.90;;;;;;4869057;29;20076;-82
2023/02/12 06:25:54;;;;;;;30.50;16.67;;;-0.20;99.90;;;;;;4858424;29;20058;-82
2023/02/12 06:28:22;;;;;;;35.22;17.23;;;-0.20;99.90;;;;;;4844841;29;20112;-83
2023/02/12 06:30:48;;;;;;;33.03;17.17;;;-0.20;99.90;;;;;;4853106;29;20062;-83
2023/02/12 06:33:15;;;;;;;30.95;16.58;;;-0.20;99.90;;;;;;4865872;29;20544;-82
2023/02/12 06:35:42;;;;;;;31.02;16.80;;;-0.30;99.90;;;;;;4858307;29;20136;-82
2023/02/12 06:38:09;;;;;;;31.98;16.75;;;-0.30;99.90;;;;;;4871961;29;20049;-83
2023/02/12 06:40:36;;;;;;;36.00;17.38;;;-0.30;99.90;;;;;;4886502;29;20053;-82
2023/02/12 06:43:03;;;;;;;34.72;18.60;;;-0.30;99.90;;;;;;4879503;29;20060;-82
2023/02/12 06:45:29;;;;;;;34.38;17.45;;;-0.30;99.90;;;;;;4868915;29;20042;-82
2023/02/12 06:47:56;;;;;;;32.95;17.25;;;-0.30;99.90;;;;;;4861784;29;20057;-83
2023/02/12 06:50:24;;;;;;;32.45;17.92;;;-0.30;99.90;;;;;;4880329;29;20072;-83
2023/02/12 06:52:50;;;;;;;32.30;16.40;;;-0.30;99.90;;;;;;4869042;29;20054;-82
2023/02/12 06:55:17;;;;;;;30.73;17.30;;;-0.30;99.90;;;;;;4852365;29;20081;-82
2023/02/12 06:57:44;;;;;;;31.33;16.08;;;-0.30;99.90;;;;;;4842696;29;20054;-83
2023/02/12 07:00:11;;;;;;;32.85;16.48;;;-0.30;99.90;;;;;;4856772;29;20189;-83
2023/02/12 07:02:38;;;;;;;29.77;17.27;;;-0.30;99.90;;;;;;4856592;29;20093;-83
2023/02/12 07:05:05;;;;;;;31.70;17.08;;;-0.30;99.90;;;;;;4868117;29;20065;-82
2023/02/12 07:07:32;;;;;;;36.15;17.48;;;-0.30;99.90;;;;;;4860272;29;20439;-83
2023/02/12 07:09:58;;;;;;;28.40;16.85;;;-0.30;99.90;;;;;;4860782;29;20088;-82
2023/02/12 07:12:25;;;;;;;33.65;17.08;;;-0.30;99.90;;;;;;4852824;29;20140;-83
2023/02/12 07:14:52;;;;;;;30.77;16.27;;;-0.30;99.90;;;;;;4852181;29;20432;-82
2023/02/12 07:17:18;;;;;;;27.77;15.65;;;-0.30;99.90;;;;;;4851928;29;20108;-83
2023/02/12 07:19:45;;;;;;;26.20;14.93;;;-0.30;99.90;;;;;;4854232;29;20487;-82
2023/02/12 07:22:12;;;;;;;28.33;15.10;;;-0.30;99.90;;;;;;4853317;29;20144;-82
2023/02/12 07:24:38;;;;;;;30.77;16.42;;;-0.30;99.90;;;;;;4850282;29;20136;-82
2023/02/12 07:27:05;;;;;;;27.70;15.43;;;-0.30;99.90;;;;;;4850539;29;20077;-83
2023/02/12 07:29:32;;;;;;;25.80;15.38;;;-0.20;99.90;;;;;;4862331;29;20148;-82
2023/02/12 07:31:59;;;;;;;28.92;15.13;;;-0.20;99.90;;;;;;4863155;29;20080;-82
2023/02/12 07:34:26;;;;;;;28.40;15.32;;;-0.20;99.90;;;;;;4865967;29;20059;-84
2023/02/12 07:36:53;;;;;;;31.55;16.38;;;-0.20;99.90;;;;;;4855299;29;20424;-83
2023/02/12 07:39:20;;;;;;;27.85;15.85;;;-0.20;99.90;;;;;;4858109;29;20072;-82
2023/02/12 07:41:46;;;;;;;33.60;16.30;;;-0.20;99.90;;;;;;4859928;29;20050;-83
2023/02/12 07:44:13;;;;;;;32.92;17.00;;;-0.20;99.90;;;;;;4849185;29;20060;-82
2023/02/12 07:46:45;;;;;;;30.42;17.52;;;-0.20;99.90;;;;;;4859484;29;20057;-82
2023/02/12 07:49:19;;;;;;;32.85;16.98;;;-0.10;99.90;;;;;;4855584;29;20518;-83
2023/02/12 07:51:47;;;;;;;29.73;16.67;;;-0.10;99.90;;;;;;4847942;29;20077;-82
2023/02/12 07:54:14;;;;;;;33.33;16.63;;;-0.10;99.90;;;;;;4861406;29;20172;-82
2023/02/12 07:56:45;;;;;;;28.92;16.10;;;0.00;99.90;;;;;;4860244;29;20145;-83
2023/02/12 07:59:15;;;;;;;26.25;15.18;;;0.00;99.90;;;;;;4868507;29;20105;-83
2023/02/12 08:01:50;;;;;;;24.13;14.65;;;0.00;99.90;;;;;;4855400;29;20100;-82
2023/02/12 08:04:19;;;;;;;33.50;15.68;;;0.00;99.90;;;;;;4853505;29;20057;-82
2023/02/12 08:06:49;;;;;;;28.92;14.98;;;0.10;99.90;;;;;;4856101;29;20058;-83
2023/02/12 08:09:18;;;;;;;29.17;15.10;;;0.10;99.90;;;;;;4864777;29;20056;-82
2023/02/12 08:11:45;;;;;;;28.77;15.27;;;0.10;99.90;;;;;;4862994;29;20052;-83
2023/02/12 08:14:14;;;;;;;29.98;15.55;;;0.20;99.90;;;;;;4867317;29;20050;-83
2023/02/12 08:16:42;;;;;;;24.70;14.40;;;0.20;99.90;;;;;;4863458;29;20049;-82
2023/02/12 08:19:09;;;;;;;28.40;16.17;;;0.30;99.90;;;;;;4864030;29;20053;-82
2023/02/12 08:21:49;;;;;;;28.42;16.58;;;0.30;99.90;;;;;;4855605;29;20056;-82
2023/02/12 08:24:16;;;;;;;29.42;15.10;;;0.30;99.90;;;;;;4861998;29;20113;-83
2023/02/12 08:26:43;;;;;;;31.90;17.05;;;0.40;99.90;;;;;;4856434;29;20072;-82
2023/02/12 08:29:14;;;;;;;27.33;16.05;;;0.40;99.90;;;;;;4854910;29;20527;-82
2023/02/12 08:31:46;;;;;;;25.27;15.15;;;0.40;99.90;;;;;;4849745;29;20050;-83
2023/02/12 08:34:28;;;;;;;24.30;14.57;;;0.50;99.90;;;;;;4851003;29;20059;-83
2023/02/12 08:36:55;;;;;;;29.10;16.50;;;0.50;99.90;;;;;;4859901;29;20555;-82
2023/02/12 08:39:24;;;;;;;32.75;18.85;;;0.60;99.90;;;;;;4860828;29;20057;-82
2023/02/12 08:41:54;;;;;;;35.45;20.25;;;0.60;99.90;;;;;;4842355;29;20468;-82
2023/02/12 08:44:21;;;;;;;28.85;18.30;;;0.70;99.90;;;;;;4840365;29;20075;-82
2023/02/12 08:46:52;;;;;;;32.03;16.67;;;0.70;99.90;;;;;;4848718;29;20077;-82
2023/02/12 08:49:22;;;;;;;31.52;17.65;;;0.80;99.90;;;;;;4855056;29;20095;-82
2023/02/12 08:51:51;;;;;;;33.28;19.27;;;0.80;99.90;;;;;;4860002;29;20630;-83
2023/02/12 08:54:23;;;;;;;32.88;19.73;;;0.90;99.90;;;;;;4858841;29;20060;-82
2023/02/12 08:56:54;;;;;;;32.38;18.30;;;1.00;99.90;;;;;;4847512;29;20092;-83
2023/02/12 08:59:21;;;;;;;32.83;18.77;;;1.00;99.90;;;;;;4859083;29;20055;-83
2023/02/12 09:01:50;;;;;;;32.45;20.50;;;1.10;99.90;;;;;;4857881;29;20052;-82
2023/02/12 09:04:20;;;;;;;34.30;19.80;;;1.20;99.90;;;;;;4843211;29;20057;-82
2023/02/12 09:06:47;;;;;;;31.23;19.45;;;1.20;99.90;;;;;;4839614;29;20056;-82
2023/02/12 09:09:15;;;;;;;34.65;21.00;;;1.30;99.90;;;;;;4862872;29;20079;-82
2023/02/12 09:11:43;;;;;;;36.75;20.65;;;1.30;99.90;;;;;;4854900;29;20098;-82
2023/02/12 09:14:13;;;;;;;40.20;22.98;;;1.40;99.90;;;;;;4854695;29;20387;-82
2023/02/12 09:16:40;;;;;;;34.20;20.92;;;1.40;99.90;;;;;;4853562;29;20142;-83
2023/02/12 09:19:10;;;;;;;40.65;21.30;;;1.50;99.90;;;;;;4860881;29;20070;-84
2023/02/12 09:21:36;;;;;;;33.85;21.60;;;1.60;99.90;;;;;;4861947;29;20069;-82
2023/02/12 09:24:03;;;;;;;37.67;23.00;;;1.60;99.90;;;;;;4862332;29;20049;-83
2023/02/12 09:26:30;;;;;;;43.05;24.55;;;1.70;99.90;;;;;;4859194;29;20057;-82
2023/02/12 09:28:57;;;;;;;43.00;23.40;;;1.70;99.90;;;;;;4858674;29;20096;-83
2023/02/12 09:31:26;;;;;;;44.25;24.73;;;1.80;99.90;;;;;;4859533;29;20057;-82
2023/02/12 09:33:59;;;;;;;40.83;25.13;;;1.90;99.90;;;;;;4858786;29;20113;-82
2023/02/12 09:36:26;;;;;;;44.10;26.15;;;1.90;99.90;;;;;;4862004;29;20046;-83
2023/02/12 09:38:53;;;;;;;45.35;25.70;;;2.00;99.90;;;;;;4854728;29;20533;-83
2023/02/12 09:41:45;;;;;;;42.63;25.80;;;2.10;99.90;;;;;;4852505;29;20050;-83
2023/02/12 09:44:39;;;;;;;42.38;26.65;;;2.10;99.90;;;;;;4863340;29;20153;-83
2023/02/12 09:47:25;;;;;;;51.67;30.55;;;2.20;99.90;;;;;;4858205;29;20467;-83
2023/02/12 09:50:17;;;;;;;44.15;28.08;;;2.30;99.90;;;;;;4856226;29;20058;-80
2023/02/12 09:52:44;;;;;;;42.53;25.30;;;2.30;99.90;;;;;;4859545;29;20115;-82
2023/02/12 09:55:16;;;;;;;36.38;24.23;;;2.40;99.90;;;;;;4858613;29;20050;-82
2023/02/12 09:57:44;;;;;;;42.60;25.65;;;2.50;99.90;;;;;;4854164;29;20066;-82
2023/02/12 10:00:30;;;;;;;45.00;24.63;;;2.50;99.90;;;;;;4856801;29;20050;-80
2023/02/12 10:03:02;;;;;;;40.08;24.63;;;2.60;99.90;;;;;;4854842;29;20591;-81
2023/02/12 10:05:53;;;;;;;40.03;24.75;;;2.70;99.90;;;;;;4849092;29;20053;-81
2023/02/12 10:09:10;;;;;;;44.37;25.97;;;2.80;99.90;;;;;;4863853;29;20093;-82
2023/02/12 10:11:42;;;;;;;47.95;28.13;;;2.90;99.90;;;;;;4835310;29;20058;-81
2023/02/12 10:14:21;;;;;;;49.60;28.67;;;2.90;99.90;;;;;;4847898;29;20054;-81
2023/02/12 10:17:02;;;;;;;42.95;25.92;;;3.00;99.90;;;;;;4855084;29;20056;-80
2023/02/12 10:20:00;;;;;;;47.35;27.77;;;3.00;99.90;;;;;;4855955;29;20053;-80
2023/02/12 10:22:45;;;;;;;45.13;28.85;;;3.10;99.90;;;;;;4854199;29;20061;-82
2023/02/12 10:25:27;;;;;;;46.10;28.42;;;3.20;99.90;;;;;;4848829;29;20066;-79
2023/02/12 10:27:56;;;;;;;49.35;29.13;;;3.20;99.90;;;;;;4857140;29;20053;-80
2023/02/12 10:30:48;;;;;;;46.30;27.75;;;3.20;99.90;;;;;;4862382;29;20145;-80
2023/02/12 10:33:20;;;;;;;46.75;29.88;;;3.30;99.90;;;;;;4863986;29;20057;-79
2023/02/12 10:35:53;;;;;;;46.33;28.42;;;3.40;99.90;;;;;;4859184;29;20449;-80
2023/02/12 10:38:25;;;;;;;46.45;27.30;;;3.40;99.90;;;;;;4856329;29;20077;-80
2023/02/12 10:40:54;;;;;;;37.28;24.65;;;3.50;99.90;;;;;;4836410;29;20053;-80
2023/02/12 10:43:20;;;;;;;44.30;25.23;;;3.50;99.90;;;;;;4856957;29;20053;-80
2023/02/12 10:45:49;;;;;;;42.15;25.80;;;3.50;99.90;;;;;;4858259;29;20053;-81
2023/02/12 10:48:18;;;;;;;40.15;24.50;;;3.60;99.90;;;;;;4853844;29;20053;-80
2023/02/12 10:51:04;;;;;;;37.65;23.05;;;3.70;99.90;;;;;;4854523;29;20061;-81
2023/02/12 10:53:33;;;;;;;36.75;23.75;;;3.70;99.90;;;;;;4865003;29;20051;-81
2023/02/12 10:56:16;;;;;;;43.90;22.98;;;3.80;99.90;;;;;;4862216;29;20424;-81
2023/02/12 10:58:52;;;;;;;38.55;23.15;;;3.80;99.90;;;;;;4859078;29;20050;-80
2023/02/12 11:01:32;;;;;;;40.83;23.25;;;3.80;99.90;;;;;;4859079;29;20136;-81
2023/02/12 11:04:29;;;;;;;35.25;21.92;;;3.90;99.90;;;;;;4860348;29;20058;-80
2023/02/12 11:07:08;;;;;;;35.38;21.75;;;4.00;99.90;;;;;;4850657;29;20060;-80
2023/02/12 11:09:44;;;;;;;36.22;21.48;;;4.10;99.90;;;;;;4854551;29;20076;-80
2023/02/12 11:12:28;;;;;;;30.58;19.92;;;4.10;99.90;;;;;;4859847;29;20049;-81
2023/02/12 11:15:22;;;;;;;32.05;18.92;;;4.20;99.90;;;;;;4844543;29;20079;-80
2023/02/12 11:18:01;;;;;;;25.05;16.77;;;4.20;99.90;;;;;;4862115;29;20095;-81
2023/02/12 11:20:40;;;;;;;29.10;17.55;;;4.20;99.90;;;;;;4852014;29;20049;-81
2023/02/12 11:23:24;;;;;;;23.17;15.27;;;4.30;99.90;;;;;;4859970;29;20149;-81
2023/02/12 11:26:06;;;;;;;23.92;11.90;;;4.40;99.90;;;;;;4857351;29;20061;-80
2023/02/12 11:28:35;;;;;;;22.15;12.55;;;4.50;99.90;;;;;;4851372;29;20068;-81
2023/02/12 11:31:11;;;;;;;16.92;11.15;;;4.60;99.90;;;;;;4856193;29;20074;-82
2023/02/12 11:33:38;;;;;;;18.40;11.90;;;4.80;99.90;;;;;;4833766;29;20042;-81
2023/02/12 11:36:15;;;;;;;17.77;10.48;;;4.80;99.90;;;;;;4851630;29;20486;-82
2023/02/12 11:39:02;;;;;;;21.23;13.85;;;4.90;99.90;;;;;;4862175;29;20420;-81
2023/02/12 11:41:39;;;;;;;15.27;10.45;;;5.00;99.90;;;;;;4857458;29;20407;-82
2023/02/12 11:44:11;;;;;;;13.05;9.23;;;5.00;99.90;;;;;;4842538;29;20121;-81
2023/02/12 11:46:44;;;;;;;10.27;7.22;;;5.10;99.90;;;;;;4863796;29;20157;-81
2023/02/12 11:49:20;;;;;;;12.88;9.00;;;5.10;99.90;;;;;;4855743;29;20065;-81
2023/02/12 11:51:48;;;;;;;14.57;10.65;;;5.20;99.90;;;;;;4850294;29;20105;-82
2023/02/12 11:54:21;;;;;;;15.70;10.88;;;5.30;99.90;;;;;;4854977;29;20067;-80
2023/02/12 11:56:48;;;;;;;13.70;9.27;;;5.20;99.90;;;;;;4843292;29;20129;-81
2023/02/12 11:59:36;;;;;;;16.27;9.93;;;5.20;99.90;;;;;;4854589;29;20053;-82
2023/02/12 12:02:32;;;;;;;14.90;8.70;;;5.30;99.90;;;;;;4856159;29;20512;-81
2023/02/12 12:05:17;;;;;;;13.45;8.82;;;5.30;99.90;;;;;;4846661;29;20054;-81
2023/02/12 12:07:56;;;;;;;14.02;9.45;;;5.30;99.90;;;;;;4844630;29;20050;-80
2023/02/12 12:10:42;;;;;;;16.10;10.30;;;5.30;99.90;;;;;;4837372;29;20053;-80
2023/02/12 12:13:15;;;;;;;16.00;9.60;;;5.30;99.90;;;;;;4859429;29;20092;-81
2023/02/12 12:21:51;;;;;;;16.30;9.88;;;5.30;99.90;;;;;;4857979;29;20045;-82
2023/02/12 12:24:44;;;;;;;13.90;9.40;;;5.40;99.90;;;;;;4859247;29;20059;-81
2023/02/12 12:30:31;;;;;;;12.05;8.57;;;5.40;99.90;;;;;;4866150;29;20066;-81
2023/02/12 12:33:01;;;;;;;14.20;9.63;;;5.50;99.90;;;;;;4856936;29;20045;-82
2023/02/12 12:35:43;;;;;;;13.38;9.57;;;5.60;99.90;;;;;;4845032;29;20390;-82
2023/02/12 12:38:19;;;;;;;18.00;10.50;;;5.70;99.90;;;;;;4861765;29;20107;-82
2023/02/12 12:40:57;;;;;;;14.80;10.13;;;5.70;99.90;;;;;;4857049;29;20479;-81
2023/02/12 12:43:30;;;;;;;15.45;10.32;;;5.70;99.90;;;;;;4853147;29;20136;-81
2023/02/12 12:46:47;;;;;;;17.10;10.52;;;5.70;99.90;;;;;;4852422;29;20140;-81
2023/02/12 12:49:57;;;;;;;15.82;11.02;;;5.90;99.90;;;;;;4828016;29;20153;-81
2023/02/12 12:53:02;;;;;;;15.25;10.02;;;6.00;99.90;;;;;;4856037;29;20090;-81
2023/02/12 12:55:49;;;;;;;17.45;12.50;;;6.10;99.90;;;;;;4853579;29;20073;-82
2023/02/12 12:58:26;;;;;;;15.98;11.48;;;6.10;99.90;;;;;;4855423;29;20085;-81
2023/02/12 13:01:24;;;;;;;18.73;12.82;;;6.00;99.90;;;;;;4857210;29;20049;-82
2023/02/12 13:04:12;;;;;;;18.35;12.98;;;6.00;99.90;;;;;;4853183;29;20069;-82
2023/02/12 13:06:48;;;;;;;26.45;12.27;;;5.90;99.90;;;;;;4859566;29;20069;-82
2023/02/12 13:09:17;;;;;;;17.92;12.18;;;6.10;99.90;;;;;;4857120;29;20063;-82
2023/02/12 13:11:56;;;;;;;17.48;12.40;;;6.00;99.90;;;;;;4848941;29;20106;-82
2023/02/12 13:14:32;;;;;;;18.35;12.35;;;6.10;99.90;;;;;;4859238;29;20049;-82
2023/02/12 13:17:39;;;;;;;20.17;12.82;;;6.10;99.90;;;;;;4839747;29;20053;-82
2023/02/12 13:20:30;;;;;;;19.42;12.98;;;6.10;99.90;;;;;;4858084;29;20101;-81